Time;durP1;ratioP1;P1;durP2;ratioP2;P2;SDS_P1;SDS_P2;PMS_P1;PMS_P2;Temp;Humidity;BMP_temperature;BMP_pressure;BME280_temperature;BME280_humidity;BME280_pressure;Samples;Min_cycle;Max_cycle;Signal;HPM_P1;HPM_P2
2021/12/15 00:00:20;;;;;;;44.33;16.08;;;9.80;99.90;;;;;;5074854;28;20021;-75
2021/12/15 00:02:50;;;;;;;43.05;15.80;;;9.80;99.90;;;;;;5076229;28;20021;-74
2021/12/15 00:05:21;;;;;;;44.35;17.33;;;9.80;99.90;;;;;;5074537;28;20021;-75
2021/12/15 00:07:52;;;;;;;44.17;16.83;;;9.80;99.90;;;;;;5075723;28;20040;-75
2021/12/15 00:10:19;;;;;;;43.85;16.60;;;9.80;99.90;;;;;;5075907;28;20122;-74
2021/12/15 00:12:45;;;;;;;46.65;17.08;;;9.80;99.90;;;;;;5075790;28;20033;-74
2021/12/15 00:15:11;;;;;;;44.45;17.13;;;9.80;99.90;;;;;;5074279;28;20385;-75
2021/12/15 00:17:37;;;;;;;46.08;16.27;;;9.80;99.90;;;;;;5075947;28;20070;-74
2021/12/15 00:20:09;;;;;;;46.42;17.20;;;9.80;99.90;;;;;;5074287;28;20495;-75
2021/12/15 00:22:37;;;;;;;41.28;16.02;;;9.80;99.90;;;;;;5074266;28;20036;-74
2021/12/15 00:25:09;;;;;;;38.93;14.50;;;9.80;99.90;;;;;;5075547;28;20032;-74
2021/12/15 00:27:35;;;;;;;43.38;16.33;;;9.80;99.90;;;;;;5075433;28;20079;-75
2021/12/15 00:30:01;;;;;;;43.25;16.77;;;9.80;99.90;;;;;;5075562;28;20039;-75
2021/12/15 00:32:27;;;;;;;41.53;17.13;;;9.80;99.90;;;;;;5073907;28;20032;-74
2021/12/15 00:34:52;;;;;;;40.40;16.00;;;9.80;99.90;;;;;;5075206;28;20032;-75
2021/12/15 00:37:20;;;;;;;43.03;16.00;;;9.80;99.90;;;;;;5073976;28;20024;-74
2021/12/15 00:39:46;;;;;;;43.90;17.73;;;9.80;99.90;;;;;;5075302;28;20047;-75
2021/12/15 00:42:12;;;;;;;43.92;18.58;;;9.80;99.90;;;;;;5075553;28;20054;-75
2021/12/15 00:44:38;;;;;;;44.03;15.85;;;9.70;99.90;;;;;;5075459;28;20044;-75
2021/12/15 00:47:04;;;;;;;44.90;16.75;;;9.70;99.90;;;;;;5075067;28;20115;-74
2021/12/15 00:49:30;;;;;;;40.63;17.80;;;9.70;99.90;;;;;;5075430;28;20470;-75
2021/12/15 00:51:57;;;;;;;42.85;17.55;;;9.70;99.90;;;;;;5075073;28;20031;-74
2021/12/15 00:54:23;;;;;;;45.40;17.48;;;9.80;99.90;;;;;;5074712;28;20131;-75
2021/12/15 00:56:50;;;;;;;43.55;17.15;;;9.80;99.90;;;;;;5074783;28;20031;-74
2021/12/15 00:59:16;;;;;;;45.00;17.38;;;9.80;99.90;;;;;;5074883;28;20377;-74
2021/12/15 01:01:42;;;;;;;44.80;17.25;;;9.80;99.90;;;;;;5074838;28;20024;-75
2021/12/15 01:04:11;;;;;;;41.42;16.80;;;9.80;99.90;;;;;;5073530;28;20475;-74
2021/12/15 01:06:39;;;;;;;42.85;16.42;;;9.80;99.90;;;;;;5073348;28;20024;-75
2021/12/15 01:09:17;;;;;;;43.80;17.70;;;9.90;99.90;;;;;;5073262;28;20021;-74
2021/12/15 01:12:10;;;;;;;42.85;16.85;;;9.90;99.90;;;;;;5074581;28;20025;-74
2021/12/15 01:20:22;;;;;;;45.63;16.23;;;9.80;99.90;;;;;;5074585;28;20559;-75
2021/12/15 01:22:51;;;;;;;46.83;17.70;;;9.80;99.90;;;;;;5074192;28;20026;-75
2021/12/15 01:25:52;;;;;;;40.10;15.52;;;9.80;99.90;;;;;;5074309;28;20111;-74
2021/12/15 01:28:18;;;;;;;48.10;19.13;;;9.80;99.90;;;;;;5068580;28;20024;-74
2021/12/15 01:30:46;;;;;;;41.70;16.42;;;9.80;99.90;;;;;;5072898;28;20123;-74
2021/12/15 01:33:12;;;;;;;52.88;18.52;;;9.80;99.90;;;;;;5074214;28;20078;-74
2021/12/15 01:35:41;;;;;;;43.45;17.23;;;9.80;99.90;;;;;;5073970;28;20028;-75
2021/12/15 01:38:07;;;;;;;42.60;18.58;;;9.80;99.90;;;;;;5074246;28;20032;-77
2021/12/15 01:40:38;;;;;;;43.08;17.13;;;9.80;99.90;;;;;;5074285;28;20017;-76
2021/12/15 01:43:17;;;;;;;44.25;18.35;;;9.80;99.90;;;;;;5072986;28;20389;-76
2021/12/15 01:48:28;;;;;;;43.30;18.73;;;9.70;99.90;;;;;;5074822;28;20419;-76
2021/12/15 01:50:53;;;;;;;47.83;18.77;;;9.80;99.90;;;;;;5073662;28;20024;-76
2021/12/15 01:53:19;;;;;;;41.60;17.38;;;9.70;99.90;;;;;;5074085;28;20075;-77
2021/12/15 01:55:46;;;;;;;44.17;17.90;;;9.80;99.90;;;;;;5074266;28;20078;-77
2021/12/15 01:58:12;;;;;;;43.42;18.63;;;9.80;99.90;;;;;;5073905;28;20070;-77
2021/12/15 02:00:47;;;;;;;49.38;16.95;;;9.80;99.90;;;;;;5073687;28;20504;-76
2021/12/15 02:03:13;;;;;;;44.38;16.95;;;9.80;99.90;;;;;;5073733;28;20112;-76
2021/12/15 02:05:39;;;;;;;46.25;17.73;;;9.80;99.90;;;;;;5072416;28;20048;-76
2021/12/15 02:08:06;;;;;;;47.53;18.45;;;9.80;99.90;;;;;;5072576;28;20032;-76
2021/12/15 02:10:35;;;;;;;42.03;17.02;;;9.80;99.90;;;;;;5073891;28;20020;-77
2021/12/15 02:13:02;;;;;;;;;;;9.80;99.90;;;;;;5074002;28;20028;-76
2021/12/15 02:15:36;;;;;;;46.38;16.88;;;9.80;99.90;;;;;;5073856;28;19969;-76
2021/12/15 02:18:04;;;;;;;32.38;13.93;;;9.80;99.90;;;;;;5073760;28;20082;-76
2021/12/15 02:20:39;;;;;;;47.00;18.63;;;9.80;99.90;;;;;;5073364;28;20016;-76
2021/12/15 02:23:09;;;;;;;41.20;16.02;;;9.80;99.90;;;;;;5073214;28;20029;-75
2021/12/15 02:25:35;;;;;;;43.08;17.77;;;9.80;99.90;;;;;;5073312;28;20527;-76
2021/12/15 02:28:02;;;;;;;40.40;16.92;;;9.80;99.90;;;;;;5072018;28;20119;-76
2021/12/15 02:33:40;;;;;;;42.88;17.88;;;9.80;99.90;;;;;;5073638;28;20036;-75
2021/12/15 02:38:44;;;;;;;48.63;17.70;;;9.80;99.90;;;;;;5073453;28;20082;-76
2021/12/15 02:41:19;;;;;;;40.55;17.80;;;9.80;99.90;;;;;;5073158;28;20489;-76
2021/12/15 02:43:52;;;;;;;50.58;18.85;;;9.80;99.90;;;;;;5073476;28;20358;-76
2021/12/15 02:46:18;;;;;;;41.95;15.00;;;9.80;99.90;;;;;;5073328;28;20078;-76
2021/12/15 02:48:44;;;;;;;44.92;16.95;;;9.70;99.90;;;;;;5073052;28;20029;-76
2021/12/15 02:51:11;;;;;;;41.60;15.00;;;9.80;99.90;;;;;;5073077;28;20104;-76
2021/12/15 02:53:37;;;;;;;37.58;16.00;;;9.80;99.90;;;;;;5071648;28;20038;-76
2021/12/15 02:56:03;;;;;;;43.92;17.75;;;9.80;99.90;;;;;;5073883;28;20028;-75
2021/12/15 02:58:33;;;;;;;41.28;15.90;;;9.80;99.90;;;;;;5078016;28;20047;-74
2021/12/15 03:01:06;;;;;;;41.40;16.75;;;9.80;99.90;;;;;;5077329;28;20020;-75
2021/12/15 03:06:09;;;;;;;42.55;15.88;;;9.80;99.90;;;;;;5077113;28;20503;-74
2021/12/15 03:08:52;;;;;;;47.50;17.25;;;9.80;99.90;;;;;;5075741;28;20388;-74
2021/12/15 03:16:49;;;;;;;44.15;16.75;;;9.90;99.90;;;;;;5077087;28;20089;-76
2021/12/15 03:19:15;;;;;;;44.97;17.42;;;9.90;99.90;;;;;;5077029;28;20031;-75
2021/12/15 03:21:41;;;;;;;40.72;16.40;;;9.90;99.90;;;;;;5076934;28;20024;-75
2021/12/15 03:24:13;;;;;;;42.40;15.35;;;9.80;99.90;;;;;;5076463;28;20021;-75
2021/12/15 03:26:48;;;;;;;39.72;15.40;;;9.90;99.90;;;;;;5077005;28;20055;-76
2021/12/15 03:37:23;;;;;;;46.13;17.23;;;9.80;99.90;;;;;;5076173;28;20078;-75
2021/12/15 03:39:55;;;;;;;41.97;16.95;;;9.80;99.90;;;;;;5076255;28;20099;-75
2021/12/15 03:42:29;;;;;;;45.95;18.20;;;9.80;99.90;;;;;;5076329;28;20029;-75
2021/12/15 03:44:57;;;;;;;31.60;13.18;;;9.80;99.90;;;;;;5076805;28;20048;-75
2021/12/15 03:47:27;;;;;;;46.63;17.17;;;9.80;99.90;;;;;;5076230;28;20103;-75
2021/12/15 03:49:56;;;;;;;39.58;16.45;;;9.80;99.90;;;;;;5076575;28;20093;-76
2021/12/15 03:52:22;;;;;;;39.42;16.17;;;9.80;99.90;;;;;;5076200;28;20016;-76
2021/12/15 03:54:48;;;;;;;49.50;17.80;;;9.80;99.90;;;;;;5074913;28;20033;-76
2021/12/15 03:57:14;;;;;;;44.92;16.27;;;9.80;99.90;;;;;;5074710;28;20107;-75
2021/12/15 03:59:44;;;;;;;36.65;14.57;;;9.80;99.90;;;;;;5075947;28;20020;-75
2021/12/15 04:02:15;;;;;;;43.72;15.85;;;9.90;99.90;;;;;;5074666;28;20025;-76
2021/12/15 04:04:42;;;;;;;44.83;17.63;;;9.80;99.90;;;;;;5075726;28;20024;-76
2021/12/15 04:07:10;;;;;;;43.33;16.58;;;9.80;99.90;;;;;;5075795;28;20024;-75
2021/12/15 04:09:35;;;;;;;45.72;16.83;;;9.80;99.90;;;;;;5075735;28;20029;-76
2021/12/15 04:12:01;;;;;;;45.38;17.58;;;9.80;99.90;;;;;;5074376;28;20031;-76
2021/12/15 04:14:34;;;;;;;45.70;16.08;;;9.80;99.90;;;;;;5075634;28;20170;-76
2021/12/15 04:17:17;;;;;;;46.22;17.88;;;9.80;99.90;;;;;;5074484;28;20048;-76
2021/12/15 04:19:42;;;;;;;41.70;16.65;;;9.80;99.90;;;;;;5075616;28;20017;-75
2021/12/15 04:22:08;;;;;;;41.78;15.98;;;9.90;99.90;;;;;;5075455;28;20021;-75
2021/12/15 04:24:34;;;;;;;47.20;18.10;;;9.80;99.90;;;;;;5075419;28;20032;-75
2021/12/15 04:27:00;;;;;;;42.63;16.00;;;9.90;99.90;;;;;;5075560;28;20473;-75
2021/12/15 04:29:28;;;;;;;47.92;17.35;;;9.90;99.90;;;;;;5075750;28;20017;-76
2021/12/15 04:32:03;;;;;;;46.70;17.27;;;9.80;99.90;;;;;;5075531;28;20024;-75
2021/12/15 04:34:29;;;;;;;47.72;17.17;;;9.80;99.90;;;;;;5075273;28;20024;-76
2021/12/15 04:36:55;;;;;;;48.28;17.13;;;9.80;99.90;;;;;;5074136;28;20555;-75
2021/12/15 04:39:25;;;;;;;45.88;15.85;;;9.80;99.90;;;;;;5073943;28;20046;-76
2021/12/15 04:41:52;;;;;;;42.42;16.40;;;9.80;99.90;;;;;;5075261;28;20545;-76
2021/12/15 04:44:21;;;;;;;47.72;17.17;;;9.80;99.90;;;;;;5075228;28;20064;-75
2021/12/15 04:46:59;;;;;;;50.90;16.10;;;9.80;99.90;;;;;;5075125;28;20027;-75
2021/12/15 04:49:29;;;;;;;46.50;16.17;;;9.80;99.90;;;;;;5075121;28;20432;-75
2021/12/15 04:51:54;;;;;;;43.60;16.17;;;9.80;99.90;;;;;;5075479;28;20414;-75
2021/12/15 04:54:20;;;;;;;46.00;15.25;;;9.80;99.90;;;;;;5074688;28;20095;-75
2021/12/15 04:56:47;;;;;;;35.53;13.30;;;9.80;99.90;;;;;;5073611;28;20051;-75
2021/12/15 04:59:13;;;;;;;42.13;15.43;;;9.80;99.90;;;;;;5074823;28;20013;-75
2021/12/15 05:01:40;;;;;;;38.88;14.27;;;9.80;99.90;;;;;;5074742;28;20473;-76
2021/12/15 05:04:05;;;;;;;41.45;15.00;;;9.80;99.90;;;;;;5074587;28;20020;-75
2021/12/15 05:06:31;;;;;;;52.13;17.88;;;9.80;99.90;;;;;;5074542;28;20024;-75
2021/12/15 05:08:57;;;;;;;47.85;17.40;;;9.80;99.90;;;;;;5073752;28;20023;-75
2021/12/15 05:11:23;;;;;;;45.90;15.65;;;9.80;99.90;;;;;;5074581;28;20099;-75
2021/12/15 05:13:49;;;;;;;48.97;18.25;;;9.80;99.90;;;;;;5074951;28;20025;-76
2021/12/15 05:16:16;;;;;;;46.17;16.90;;;9.80;99.90;;;;;;5074420;28;20025;-75
2021/12/15 05:18:43;;;;;;;47.47;16.70;;;9.70;99.90;;;;;;5073489;28;20025;-76
2021/12/15 05:21:10;;;;;;;49.28;15.77;;;9.70;99.90;;;;;;5073143;28;20020;-76
2021/12/15 05:23:36;;;;;;;43.72;16.95;;;9.80;99.90;;;;;;5074445;28;20039;-76
2021/12/15 05:26:02;;;;;;;50.63;17.00;;;9.80;99.90;;;;;;5074579;28;20024;-76
2021/12/15 05:28:28;;;;;;;44.50;16.00;;;9.80;99.90;;;;;;5074579;28;20028;-76
2021/12/15 05:30:56;;;;;;;50.55;17.23;;;9.80;99.90;;;;;;5074261;28;20029;-76
2021/12/15 05:33:22;;;;;;;46.35;16.38;;;9.90;99.90;;;;;;5074124;28;20028;-76
2021/12/15 05:35:51;;;;;;;40.88;14.63;;;9.80;99.90;;;;;;5073981;28;20056;-75
2021/12/15 05:38:17;;;;;;;45.03;16.10;;;9.80;99.90;;;;;;5074304;28;20074;-75
2021/12/15 05:40:43;;;;;;;46.35;17.00;;;10.00;99.90;;;;;;5074688;28;20028;-76
2021/12/15 05:43:09;;;;;;;47.50;15.52;;;9.90;99.90;;;;;;5074382;28;20074;-75
2021/12/15 05:45:37;;;;;;;47.25;16.25;;;9.90;99.90;;;;;;5073907;28;20107;-75
2021/12/15 05:48:06;;;;;;;47.25;15.77;;;9.90;99.90;;;;;;5073838;28;20024;-75
2021/12/15 05:50:32;;;;;;;48.75;16.98;;;9.80;99.90;;;;;;5072526;28;20029;-75
2021/12/15 05:53:00;;;;;;;47.85;17.80;;;9.80;99.90;;;;;;5073728;28;20035;-75
2021/12/15 05:55:26;;;;;;;55.28;17.27;;;9.80;99.90;;;;;;5073537;28;20025;-75
2021/12/15 05:57:51;;;;;;;48.08;16.98;;;9.80;99.90;;;;;;5073678;28;20028;-75
2021/12/15 06:00:27;;;;;;;50.92;16.42;;;9.80;99.90;;;;;;5073728;28;20074;-75
2021/12/15 06:02:54;;;;;;;50.30;17.38;;;9.80;99.90;;;;;;5073647;28;20036;-76
2021/12/15 06:05:20;;;;;;;49.33;17.05;;;9.80;99.90;;;;;;5073645;28;20580;-76
2021/12/15 06:07:46;;;;;;;45.60;16.27;;;10.20;99.90;;;;;;5072442;28;20107;-76
2021/12/15 06:10:18;;;;;;;45.05;16.88;;;9.80;99.90;;;;;;5073810;28;20025;-76
2021/12/15 06:12:47;;;;;;;50.85;18.55;;;9.80;99.90;;;;;;5073674;28;20076;-75
2021/12/15 06:15:14;;;;;;;47.97;16.35;;;9.90;99.90;;;;;;5072150;28;20020;-76
2021/12/15 06:17:39;;;;;;;55.20;16.98;;;9.90;99.90;;;;;;5072549;28;20023;-76
2021/12/15 06:20:05;;;;;;;57.90;17.40;;;9.90;99.90;;;;;;5072770;28;20021;-76
2021/12/15 06:22:33;;;;;;;52.58;15.63;;;9.80;99.90;;;;;;5073854;28;20040;-76
2021/12/15 06:24:58;;;;;;;44.95;16.42;;;9.90;99.90;;;;;;5074198;28;20020;-75
2021/12/15 06:27:25;;;;;;;54.15;17.02;;;9.90;99.90;;;;;;5072836;28;20046;-75
2021/12/15 06:29:52;;;;;;;57.45;18.85;;;9.90;99.90;;;;;;5071932;28;20031;-75
2021/12/15 06:32:20;;;;;;;57.08;18.08;;;9.90;99.90;;;;;;5073467;28;20393;-75
2021/12/15 06:34:46;;;;;;;49.03;15.15;;;9.90;99.90;;;;;;5072878;28;20035;-74
2021/12/15 06:37:14;;;;;;;48.63;16.80;;;9.90;99.90;;;;;;5073285;28;20385;-74
2021/12/15 06:39:39;;;;;;;51.75;16.60;;;9.90;99.90;;;;;;5071951;28;20017;-75
2021/12/15 06:42:06;;;;;;;52.90;15.65;;;9.90;99.90;;;;;;5071812;28;20016;-75
2021/12/15 06:44:32;;;;;;;51.05;16.88;;;9.90;99.90;;;;;;5073507;28;20373;-75
2021/12/15 06:47:33;;;;;;;59.67;16.90;;;9.90;99.90;;;;;;5073124;28;20025;-74
2021/12/15 07:00:33;;;;;;;61.95;17.42;;;9.90;99.90;;;;;;5073629;28;20366;-76
2021/12/15 07:03:00;;;;;;;49.05;15.27;;;9.90;99.90;;;;;;5073236;28;20499;-77
2021/12/15 07:05:28;;;;;;;56.35;17.33;;;9.90;99.90;;;;;;5072074;28;20016;-78
2021/12/15 07:07:55;;;;;;;55.30;16.90;;;9.90;99.90;;;;;;5072959;28;20119;-78
2021/12/15 07:10:28;;;;;;;51.95;17.55;;;9.90;99.90;;;;;;5074338;28;20032;-77
2021/12/15 07:12:54;;;;;;;53.28;15.65;;;9.90;99.90;;;;;;5075085;28;20067;-77
2021/12/15 07:15:21;;;;;;;52.38;16.65;;;9.90;99.90;;;;;;5075398;28;20035;-78
2021/12/15 07:17:50;;;;;;;55.72;14.82;;;9.90;99.90;;;;;;5084618;28;20013;-76
2021/12/15 07:20:42;;;;;;;55.97;17.40;;;9.90;99.90;;;;;;5093733;28;20028;-78
2021/12/15 07:23:12;;;;;;;52.75;15.80;;;9.90;99.90;;;;;;5085438;28;20522;-77
2021/12/15 07:25:40;;;;;;;47.60;15.35;;;9.90;99.90;;;;;;5079682;28;20431;-78
2021/12/15 07:28:06;;;;;;;57.15;17.10;;;9.90;99.90;;;;;;5076441;28;20094;-78
2021/12/15 07:30:35;;;;;;;51.08;15.65;;;9.90;99.90;;;;;;5080234;28;20027;-78
2021/12/15 07:33:01;;;;;;;58.83;16.90;;;9.90;99.90;;;;;;5095609;28;20032;-78
2021/12/15 07:35:27;;;;;;;60.72;17.63;;;9.90;99.90;;;;;;5083379;28;20111;-77
2021/12/15 07:37:53;;;;;;;57.50;16.55;;;9.90;99.90;;;;;;5094559;28;20023;-77
2021/12/15 07:40:21;;;;;;;59.40;16.98;;;9.90;99.90;;;;;;5094520;28;20020;-76
2021/12/15 07:43:06;;;;;;;54.70;14.32;;;9.90;99.90;;;;;;5075674;28;20031;-77
2021/12/15 07:45:51;;;;;;;57.45;16.00;;;9.90;99.90;;;;;;5077695;28;20465;-77
2021/12/15 07:48:19;;;;;;;63.00;16.00;;;9.90;99.90;;;;;;5085949;28;20115;-77
2021/12/15 07:50:47;;;;;;;55.38;17.55;;;9.90;99.90;;;;;;5079723;28;20036;-77
2021/12/15 07:53:18;;;;;;;48.92;16.33;;;10.00;99.90;;;;;;5076502;28;20028;-77
2021/12/15 07:55:45;;;;;;;54.60;17.10;;;10.00;99.90;;;;;;5076503;28;20025;-77
2021/12/15 07:58:11;;;;;;;59.83;18.20;;;9.90;99.90;;;;;;5077586;28;20017;-78
2021/12/15 08:00:39;;;;;;;57.80;16.30;;;9.90;99.90;;;;;;5076255;28;20044;-77
2021/12/15 08:03:05;;;;;;;54.67;16.05;;;9.90;99.90;;;;;;5075378;28;20025;-77
2021/12/15 08:05:32;;;;;;;50.83;15.52;;;9.90;99.90;;;;;;5076646;28;20120;-77
2021/12/15 08:07:57;;;;;;;45.45;14.95;;;9.90;99.90;;;;;;5076921;28;20052;-77
2021/12/15 08:10:24;;;;;;;56.15;15.73;;;9.90;99.90;;;;;;5075836;28;20473;-77
2021/12/15 08:12:50;;;;;;;59.58;16.98;;;9.90;99.90;;;;;;5086748;28;20012;-77
2021/12/15 08:15:17;;;;;;;48.88;16.15;;;9.90;99.90;;;;;;5095725;28;20515;-76
2021/12/15 08:17:48;;;;;;;64.03;19.50;;;9.90;99.90;;;;;;5083086;28;20025;-76
2021/12/15 08:20:14;;;;;;;49.67;16.17;;;10.00;99.90;;;;;;5084496;28;20039;-77
2021/12/15 08:22:40;;;;;;;53.08;14.82;;;10.00;99.90;;;;;;5096935;28;20023;-77
2021/12/15 08:25:08;;;;;;;47.97;15.32;;;10.00;99.90;;;;;;5096804;28;20057;-77
2021/12/15 08:27:34;;;;;;;55.45;17.13;;;10.00;99.90;;;;;;5097557;28;20073;-76
2021/12/15 08:29:59;;;;;;;52.72;13.80;;;9.90;99.90;;;;;;5096621;28;20104;-76
2021/12/15 08:32:25;;;;;;;52.47;16.52;;;10.00;99.90;;;;;;5096765;28;20016;-77
2021/12/15 08:34:51;;;;;;;46.83;14.77;;;10.00;99.90;;;;;;5096404;28;20043;-77
2021/12/15 08:37:17;;;;;;;47.70;16.05;;;10.00;99.90;;;;;;5083945;28;20040;-77
2021/12/15 08:39:44;;;;;;;57.80;17.27;;;10.00;99.90;;;;;;5081311;28;20051;-77
2021/12/15 08:42:10;;;;;;;50.13;15.35;;;10.00;99.90;;;;;;5089170;28;20028;-77
2021/12/15 08:44:36;;;;;;;53.13;17.10;;;10.00;99.90;;;;;;5082225;28;20039;-76
2021/12/15 08:47:03;;;;;;;57.00;17.83;;;10.00;99.90;;;;;;5083793;28;20021;-77
2021/12/15 08:49:29;;;;;;;55.30;16.73;;;10.00;99.90;;;;;;5075427;28;20064;-77
2021/12/15 08:51:55;;;;;;;52.08;15.70;;;10.00;99.90;;;;;;5083685;28;20054;-77
2021/12/15 08:54:22;;;;;;;60.33;16.88;;;10.00;99.90;;;;;;5095490;28;20020;-77
2021/12/15 08:56:49;;;;;;;53.95;16.02;;;10.00;99.90;;;;;;5088739;28;20096;-77
2021/12/15 08:59:18;;;;;;;56.50;19.02;;;10.10;99.90;;;;;;5075255;28;20025;-77
2021/12/15 09:01:46;;;;;;;46.42;15.32;;;10.10;99.90;;;;;;5081952;28;20016;-77
2021/12/15 09:04:12;;;;;;;53.22;16.55;;;10.10;99.90;;;;;;5092103;28;20032;-77
2021/12/15 09:06:39;;;;;;;52.65;15.43;;;10.10;99.90;;;;;;5096390;28;20114;-77
2021/12/15 09:09:08;;;;;;;43.50;14.07;;;10.20;99.90;;;;;;5093068;28;20552;-77
2021/12/15 09:11:33;;;;;;;41.72;13.63;;;10.40;99.90;;;;;;5096809;28;20564;-77
2021/12/15 09:14:00;;;;;;;52.92;14.73;;;10.20;99.90;;;;;;5094341;28;20095;-77
2021/12/15 09:16:27;;;;;;;42.08;14.20;;;10.20;99.90;;;;;;5081562;28;20549;-77
2021/12/15 09:18:56;;;;;;;39.15;14.38;;;10.30;99.90;;;;;;5078324;28;20496;-78
2021/12/15 09:21:24;;;;;;;40.08;13.40;;;10.30;99.90;;;;;;5096543;28;20024;-77
2021/12/15 09:23:50;;;;;;;42.67;14.48;;;10.30;99.90;;;;;;5096597;28;20012;-77
2021/12/15 09:26:16;;;;;;;43.30;14.50;;;10.30;99.90;;;;;;5096044;28;20031;-76
2021/12/15 09:28:42;;;;;;;41.25;14.10;;;10.40;99.90;;;;;;5094546;28;20028;-77
2021/12/15 09:31:09;;;;;;;44.03;14.27;;;10.40;99.90;;;;;;5074347;28;20028;-77
2021/12/15 09:33:38;;;;;;;38.95;13.80;;;10.40;99.90;;;;;;5074704;28;20028;-77
2021/12/15 09:36:04;;;;;;;;;;;10.40;99.90;;;;;;5074388;28;20028;-78
2021/12/15 09:38:30;;;;;;;34.90;11.10;;;10.40;99.90;;;;;;5074439;28;19974;-77
2021/12/15 09:40:59;;;;;;;41.17;14.52;;;10.40;99.90;;;;;;5074262;28;20412;-77
2021/12/15 09:43:27;;;;;;;37.08;13.35;;;10.40;99.90;;;;;;5075678;28;20025;-77
2021/12/15 09:46:02;;;;;;;38.65;12.13;;;10.50;99.90;;;;;;5075723;28;20546;-77
2021/12/15 10:02:17;;;;;;;34.40;12.27;;;10.70;99.90;;;;;;5078227;28;20089;-74
2021/12/15 10:10:38;;;;;;;35.53;12.02;;;10.70;99.90;;;;;;5088344;28;20467;-74
2021/12/15 10:18:18;;;;;;;37.00;12.77;;;10.70;99.90;;;;;;5073767;28;20424;-73
2021/12/15 10:20:44;;;;;;;34.58;11.95;;;10.70;99.90;;;;;;5089809;28;20473;-74
2021/12/15 10:23:16;;;;;;;32.30;11.32;;;10.70;99.90;;;;;;5093785;28;20019;-74
2021/12/15 10:25:49;;;;;;;31.38;11.32;;;10.70;99.90;;;;;;5092286;28;20404;-74
2021/12/15 10:28:18;;;;;;;26.52;9.40;;;10.70;99.90;;;;;;5075301;28;20032;-74
2021/12/15 10:30:45;;;;;;;;;;;10.70;99.90;;;;;;5092399;28;20422;-74
2021/12/15 10:33:16;;;;;;;23.35;9.60;;;10.80;99.90;;;;;;5091521;28;19912;-74
2021/12/15 10:35:44;;;;;;;31.58;9.95;;;10.80;99.90;;;;;;5093394;28;20131;-74
2021/12/15 10:38:28;;;;;;;28.67;9.60;;;10.90;99.90;;;;;;5090717;28;20376;-74
2021/12/15 10:41:03;;;;;;;27.88;10.88;;;11.00;99.90;;;;;;5090146;28;20631;-74
2021/12/15 10:43:36;;;;;;;23.58;9.40;;;11.00;99.90;;;;;;5093780;28;20482;-74
2021/12/15 10:46:07;;;;;;;25.83;8.95;;;11.10;99.90;;;;;;5083799;28;20032;-74
2021/12/15 10:48:48;;;;;;;24.05;8.88;;;11.10;99.90;;;;;;5073290;28;20028;-74
2021/12/15 10:51:41;;;;;;;25.85;9.07;;;11.00;99.90;;;;;;5073257;28;20024;-74
2021/12/15 10:54:12;;;;;;;20.88;8.90;;;11.10;99.90;;;;;;5073069;28;20034;-74
2021/12/15 10:56:42;;;;;;;23.55;8.88;;;11.10;99.90;;;;;;5071640;28;20028;-74
2021/12/15 10:59:11;;;;;;;23.80;8.57;;;11.10;99.90;;;;;;5074295;28;20040;-74
2021/12/15 11:01:45;;;;;;;25.17;8.63;;;11.00;99.90;;;;;;5093055;28;20016;-74
2021/12/15 11:04:45;;;;;;;23.50;8.40;;;11.00;99.90;;;;;;5082120;28;20035;-74
2021/12/15 11:07:30;;;;;;;22.48;8.65;;;11.00;99.90;;;;;;5069636;28;20847;-74
2021/12/15 11:10:05;;;;;;;24.45;9.10;;;11.00;99.90;;;;;;5075276;28;20020;-74
2021/12/15 11:12:33;;;;;;;19.48;8.27;;;11.10;99.90;;;;;;5083866;28;20043;-73
2021/12/15 11:15:09;;;;;;;26.20;9.07;;;11.10;99.90;;;;;;5091592;28;20031;-74
2021/12/15 11:17:57;;;;;;;20.90;8.13;;;11.10;99.90;;;;;;5081762;28;20017;-74
2021/12/15 11:20:30;;;;;;;22.97;7.87;;;11.10;99.90;;;;;;5076087;28;20068;-74
2021/12/15 11:23:00;;;;;;;20.75;8.65;;;11.10;99.90;;;;;;5076957;28;20024;-74
2021/12/15 11:25:39;;;;;;;20.40;8.25;;;11.10;99.90;;;;;;5077654;28;20495;-74
2021/12/15 11:28:24;;;;;;;22.05;8.50;;;11.20;99.90;;;;;;5086896;28;20542;-74
2021/12/15 11:31:00;;;;;;;22.35;8.15;;;11.20;99.90;;;;;;5087209;28;20113;-74
2021/12/15 11:33:37;;;;;;;20.17;7.88;;;11.20;99.90;;;;;;5079116;28;20032;-74
2021/12/15 11:36:07;;;;;;;18.35;7.18;;;11.30;99.90;;;;;;5095702;28;20027;-74
2021/12/15 11:38:48;;;;;;;20.15;7.00;;;11.30;99.90;;;;;;5081157;28;20020;-74
2021/12/15 11:41:26;;;;;;;18.90;7.35;;;11.30;99.90;;;;;;5076327;28;20013;-74
2021/12/15 11:44:00;;;;;;;18.08;7.10;;;11.40;99.90;;;;;;5086224;28;20439;-74
2021/12/15 11:46:32;;;;;;;19.10;8.38;;;11.40;99.90;;;;;;5096422;28;20027;-74
2021/12/15 11:49:14;;;;;;;19.33;7.30;;;11.40;99.90;;;;;;5079862;28;20028;-74
2021/12/15 11:51:40;;;;;;;17.88;7.53;;;11.40;99.90;;;;;;5086624;28;20028;-74
2021/12/15 11:54:15;;;;;;;30.42;8.32;;;11.50;99.90;;;;;;5094364;28;20553;-74
2021/12/15 11:56:42;;;;;;;23.15;8.48;;;11.50;99.90;;;;;;5084177;28;20412;-74
2021/12/15 11:59:27;;;;;;;21.25;8.00;;;11.40;99.90;;;;;;5079048;28;20020;-74
2021/12/15 12:01:57;;;;;;;20.30;7.30;;;11.50;99.90;;;;;;5086030;28;20032;-74
2021/12/15 12:05:01;;;;;;;20.92;6.47;;;11.50;99.90;;;;;;5096635;28;20437;-74
2021/12/15 12:07:32;;;;;;;17.27;7.35;;;11.60;99.90;;;;;;5010161;28;20023;-74
2021/12/15 12:10:08;;;;;;;15.75;5.07;;;11.70;99.90;;;;;;5072627;28;20036;-74
2021/12/15 12:12:40;;;;;;;18.10;5.43;;;11.60;99.90;;;;;;5088207;28;20091;-74
2021/12/15 12:15:14;;;;;;;19.77;6.22;;;11.70;99.90;;;;;;5078322;28;20028;-74
2021/12/15 12:17:42;;;;;;;13.20;4.65;;;11.80;99.90;;;;;;5084025;28;20496;-72
2021/12/15 12:20:13;;;;;;;22.92;6.53;;;11.70;99.90;;;;;;5075479;28;20044;-74
2021/12/15 12:22:39;;;;;;;17.77;5.50;;;11.70;99.90;;;;;;5095786;28;20106;-74
2021/12/15 12:25:19;;;;;;;15.52;5.90;;;11.70;99.90;;;;;;5115909;28;20020;-74
2021/12/15 12:27:46;;;;;;;15.52;5.63;;;11.70;99.90;;;;;;5115830;28;20031;-74
2021/12/15 12:30:16;;;;;;;10.68;5.00;;;11.70;99.90;;;;;;5114832;28;20038;-73
2021/12/15 12:32:42;;;;;;;19.23;6.15;;;11.70;99.90;;;;;;5105837;28;20035;-74
2021/12/15 12:35:10;;;;;;;13.07;4.97;;;11.70;99.90;;;;;;5081388;28;20374;-74
2021/12/15 12:37:39;;;;;;;16.63;4.53;;;11.80;99.90;;;;;;5084161;28;20046;-74
2021/12/15 12:40:26;;;;;;;11.43;4.78;;;11.70;99.90;;;;;;5095836;28;20028;-74
2021/12/15 12:42:52;;;;;;;14.02;5.93;;;11.60;99.90;;;;;;5095493;28;20040;-74
2021/12/15 12:45:39;;;;;;;10.63;4.95;;;11.70;99.90;;;;;;5095132;28;20028;-74
2021/12/15 12:48:43;;;;;;;21.20;5.07;;;11.60;99.90;;;;;;5092211;28;20028;-74
2021/12/15 12:59:29;;;;;;;14.55;5.00;;;11.70;99.90;;;;;;5074959;28;20079;-74
2021/12/15 13:01:56;;;;;;;11.73;4.47;;;11.80;99.90;;;;;;5073498;28;20451;-74
2021/12/15 13:04:34;;;;;;;13.73;3.92;;;11.70;99.90;;;;;;5074813;28;20025;-74
2021/12/15 13:06:59;;;;;;;12.07;4.95;;;11.60;99.90;;;;;;5074596;28;20036;-74
2021/12/15 13:09:25;;;;;;;11.20;4.60;;;11.50;99.90;;;;;;5074357;28;20397;-74
2021/12/15 13:11:52;;;;;;;16.83;4.93;;;11.50;99.90;;;;;;5073171;28;20054;-74
2021/12/15 13:14:31;;;;;;;11.10;4.75;;;11.60;99.90;;;;;;5074268;28;20020;-74
2021/12/15 13:17:07;;;;;;;9.20;4.03;;;11.50;99.90;;;;;;5080306;28;20024;-74
2021/12/15 13:19:44;;;;;;;11.80;5.00;;;11.50;99.90;;;;;;5094825;28;20024;-74
2021/12/15 13:31:08;;;;;;;9.38;4.47;;;11.40;99.90;;;;;;5089688;28;20040;-74
2021/12/15 13:33:38;;;;;;;12.00;3.53;;;11.40;99.90;;;;;;5074895;28;20036;-74
2021/12/15 13:36:17;;;;;;;10.07;3.53;;;11.40;99.90;;;;;;5074464;28;20099;-74
2021/12/15 13:38:56;;;;;;;11.82;3.83;;;11.40;99.90;;;;;;5074866;28;20476;-74
2021/12/15 13:44:27;;;;;;;10.98;4.53;;;11.30;99.90;;;;;;5074310;28;20123;-74
2021/12/15 13:47:14;;;;;;;11.82;4.07;;;11.30;99.90;;;;;;5091296;28;20098;-74
2021/12/15 13:49:50;;;;;;;11.00;3.85;;;11.30;99.90;;;;;;5094599;28;20423;-74
2021/12/15 13:52:35;;;;;;;11.63;4.03;;;11.20;99.90;;;;;;5075312;28;20077;-74
2021/12/15 13:55:16;;;;;;;10.13;4.28;;;11.30;99.90;;;;;;5073220;28;20020;-74
2021/12/15 13:57:56;;;;;;;8.93;3.60;;;11.20;99.90;;;;;;5093600;28;20028;-74
2021/12/15 14:00:42;;;;;;;11.52;3.85;;;11.20;99.90;;;;;;5094360;28;20031;-74
2021/12/15 14:03:13;;;;;;;11.05;3.25;;;11.20;99.90;;;;;;5094135;28;20483;-74
2021/12/15 14:05:52;;;;;;;12.23;3.95;;;11.20;99.90;;;;;;5092919;28;20392;-74
2021/12/15 14:08:25;;;;;;;13.52;4.97;;;11.10;99.90;;;;;;5080123;28;20036;-74
2021/12/15 14:10:57;;;;;;;15.02;5.30;;;11.10;99.90;;;;;;5094274;28;20060;-74
2021/12/15 14:13:46;;;;;;;16.17;6.53;;;11.00;99.90;;;;;;5092135;28;20099;-74
2021/12/15 14:16:12;;;;;;;10.15;5.05;;;11.00;99.90;;;;;;5073577;28;20111;-74